Portada
METAR-TAF:

METAR-TAF

Aeropuertos :

Aeropuerto de Barcelona-El Prat

Barcelona, España

latitud: 41-17N, longitud: 002-04E, altitud: 4 m

Observación

El informe se hizo hace 18 minutos, a las 15:00 UTC
Viento 10 kt del sur-suroeste
Temperatura 25°C
Humedad 83%
Presión 1016 hPa
Visibilidad 10 km o más
Escasas nubes a una altura de 2500 ft

METAR: LEBL 251500Z 21010KT 9999 FEW025 25/22 Q1016 NOSIG

Hora: 17:18 (15:18 UTC)

Pronóstico

El informe se hizo hace 4 horas y 18 minutos, a las 11:00 UTC
Pronóstico válido del 25 a las 12 UTC al 26 a las 12 UTC
Viento 5 kt del sur-sureste
Visibilidad 10 km o más
Cielo nuboso a una altura de 3000 ft
Evolucionando progresivamente
del 25 a las 16 UTC al 25 a las 18 UTC
Viento 8 kt del suroeste
Evolucionando progresivamente
del 26 a las 00 UTC al 26 a las 02 UTC
Viento 5 kt del norte-noroeste

TAF: LEBL 251100Z 2512/2612 16005KT 9999 BKN030 TX27/2512Z TN19/2606Z BECMG 2516/2518 22008KT BECMG 2600/2602 34005KT

Observaciones y pronósticos meteorológicos de más de 4000 aeropuertos (mensajes METAR y TAF).

Los puntos amarillos y rojos representan las estaciones disponibles.

Ponga el ratón en el punto deseado para ver el nombre de la estación.

Haga clic para ver las observaciones y los pronósticos meteorológicos.

Para cambiar el mapa : haga clic en los botones verdes con una cruz de color negro para hacer un zoom, en el botón verde con un guión para alejar o en las flechas verdes para mapas adyacentes.


METAR-TAF: